^^
Station Historical Data
 
Daily Summary for September 01, 2014 Units:  English    Metric   Both
« Previous Day
Next Day »
Daily Weekly Monthly Yearly Custom
  Current: High: Low: Average:
Temperature: 85.9 °F 85.9 °F 75.6 °F 77.9 °F
Dew Point: 77.5 °F 77.7 °F 74.3 °F 75.2 °F
Humidity: 76% 97% 76% 92%
Wind Speed: 1.0mph 2.0mph 0.0mph 0.1mph
Wind Gust: 4.0mph 4.0mph - -
WindSE - - SE
Pressure: 30.10 in 30.10 in 30.03 in -
Precipitation: 0.00 in      
Historical Graphs
 
 
Tabular Data for September 01, 2014
Time Temperature Dew Point Pressure Wind Wind Speed Wind Gust Humidity Rainfall Rate (Hourly) solar Conditions
00:01 79.5 °F 74.9 °F 30.10 in SE 1.0 mph 1.0 mph 86% 0.00 in VWS V14.01 W/m2
00:04 79.5 °F 74.9 °F 30.10 in SE 1.0 mph 2.0 mph 86% 0.00 in VWS V14.01 W/m2
00:09 79.4 °F 74.8 °F 30.10 in Calm   2.0 mph 86% 0.00 in VWS V14.01 W/m2
00:14 79.3 °F 74.8 °F 30.10 in Calm     86% 0.00 in VWS V14.01 W/m2
00:19 79.2 °F 75.0 °F 30.10 in Calm   1.0 mph 87% 0.00 in VWS V14.01 W/m2
00:24 79.1 °F 74.9 °F 30.10 in Calm     87% 0.00 in VWS V14.01 W/m2
00:29 79.0 °F 74.8 °F 30.10 in Calm   1.0 mph 87% 0.00 in VWS V14.01 W/m2
00:34 78.8 °F 74.6 °F 30.10 in Calm     87% 0.00 in VWS V14.01 W/m2
00:39 78.6 °F 74.8 °F 30.09 in Calm   1.0 mph 88% 0.00 in VWS V14.01 W/m2
00:44 78.6 °F 74.8 °F 30.09 in ESE 1.0 mph 1.0 mph 88% 0.00 in VWS V14.01 W/m2
00:49 78.6 °F 74.8 °F 30.09 in Calm   1.0 mph 88% 0.00 in VWS V14.01 W/m2
00:54 78.5 °F 75.0 °F 30.09 in Calm   1.0 mph 89% 0.00 in VWS V14.01 W/m2
00:59 78.4 °F 74.9 °F 30.09 in East 1.0 mph 1.0 mph 89% 0.00 in VWS V14.01 W/m2
01:04 78.4 °F 74.9 °F 30.09 in Calm   1.0 mph 89% 0.00 in VWS V14.01 W/m2
01:09 78.4 °F 74.9 °F 30.08 in Calm   1.0 mph 89% 0.00 in VWS V14.01 W/m2
01:14 78.4 °F 74.9 °F 30.08 in Calm     89% 0.00 in VWS V14.01 W/m2
01:19 78.3 °F 74.8 °F 30.09 in Calm     89% 0.00 in VWS V14.01 W/m2
01:24 78.2 °F 75.0 °F 30.08 in Calm     90% 0.00 in VWS V14.01 W/m2
01:29 78.0 °F 74.8 °F 30.09 in Calm     90% 0.00 in VWS V14.01 W/m2
01:34 78.0 °F 74.8 °F 30.09 in Calm     90% 0.00 in VWS V14.01 W/m2
01:39 77.9 °F 74.7 °F 30.08 in Calm     90% 0.00 in VWS V14.01 W/m2
01:44 77.9 °F 74.7 °F 30.09 in Calm     90% 0.00 in VWS V14.01 W/m2
01:49 77.7 °F 74.5 °F 30.09 in Calm     90% 0.00 in VWS V14.01 W/m2
01:54 77.7 °F 74.9 °F 30.09 in Calm     91% 0.00 in VWS V14.01 W/m2
01:59 77.8 °F 75.0 °F 30.08 in Calm     91% 0.00 in VWS V14.01 W/m2
02:04 77.7 °F 74.9 °F 30.08 in Calm     91% 0.00 in VWS V14.01 W/m2
02:09 77.6 °F 74.8 °F 30.09 in Calm     91% 0.00 in VWS V14.01 W/m2
02:14 77.5 °F 74.7 °F 30.08 in Calm     91% 0.00 in VWS V14.01 W/m2
02:19 77.4 °F 74.6 °F 30.08 in Calm     91% 0.00 in VWS V14.01 W/m2
02:24 77.4 °F 74.6 °F 30.08 in Calm     91% 0.00 in VWS V14.01 W/m2
02:29 77.3 °F 74.5 °F 30.08 in Calm     91% 0.00 in VWS V14.01 W/m2
02:34 77.1 °F 74.3 °F 30.08 in Calm     91% 0.00 in VWS V14.01 W/m2
02:39 77.1 °F 74.6 °F 30.08 in Calm     92% 0.00 in VWS V14.01 W/m2
02:44 77.4 °F 74.9 °F 30.07 in Calm     92% 0.00 in VWS V14.01 W/m2
02:49 77.4 °F 74.9 °F 30.07 in Calm     92% 0.00 in VWS V14.01 W/m2
02:54 77.2 °F 74.7 °F 30.07 in Calm     92% 0.00 in VWS V14.01 W/m2
02:59 77.0 °F 74.5 °F 30.07 in Calm     92% 0.00 in VWS V14.01 W/m2
03:04 77.0 °F 74.8 °F 30.06 in Calm     93% 0.00 in VWS V14.01 W/m2
03:09 76.9 °F 74.7 °F 30.06 in Calm     93% 0.00 in VWS V14.01 W/m2
03:14 76.8 °F 74.6 °F 30.06 in Calm     93% 0.00 in VWS V14.01 W/m2
03:19 76.6 °F 74.4 °F 30.06 in Calm     93% 0.00 in VWS V14.01 W/m2
03:24 76.6 °F 74.8 °F 30.05 in Calm     94% 0.00 in VWS V14.01 W/m2
03:29 76.5 °F 74.7 °F 30.05 in Calm     94% 0.00 in VWS V14.01 W/m2
03:34 76.4 °F 74.6 °F 30.05 in Calm     94% 0.00 in VWS V14.01 W/m2
03:39 76.2 °F 74.3 °F 30.05 in Calm     94% 0.00 in VWS V14.01 W/m2
03:44 76.2 °F 74.3 °F 30.05 in Calm     94% 0.00 in VWS V14.01 W/m2
03:49 76.3 °F 74.4 °F 30.05 in Calm     94% 0.00 in VWS V14.01 W/m2
03:54 76.5 °F 74.7 °F 30.05 in Calm     94% 0.00 in VWS V14.01 W/m2
03:59 76.6 °F 74.8 °F 30.05 in Calm     94% 0.00 in VWS V14.01 W/m2
04:04 76.5 °F 74.7 °F 30.04 in Calm     94% 0.00 in VWS V14.01 W/m2
04:09 76.5 °F 74.7 °F 30.04 in Calm     94% 0.00 in VWS V14.01 W/m2
04:14 76.4 °F 74.6 °F 30.04 in Calm     94% 0.00 in VWS V14.01 W/m2
04:19 76.5 °F 74.7 °F 30.04 in Calm     94% 0.00 in VWS V14.01 W/m2
04:24 76.4 °F 74.6 °F 30.04 in Calm     94% 0.00 in VWS V14.01 W/m2
04:29 76.5 °F 75.0 °F 30.04 in Calm     95% 0.00 in VWS V14.01 W/m2
04:34 76.5 °F 75.0 °F 30.04 in Calm     95% 0.00 in VWS V14.01 W/m2
04:39 76.3 °F 74.8 °F 30.04 in Calm     95% 0.00 in VWS V14.01 W/m2
04:44 76.4 °F 74.9 °F 30.04 in Calm     95% 0.00 in VWS V14.01 W/m2
04:49 76.4 °F 74.9 °F 30.03 in Calm     95% 0.00 in VWS V14.01 W/m2
04:54 76.2 °F 74.7 °F 30.03 in Calm     95% 0.00 in VWS V14.01 W/m2
04:59 76.1 °F 74.6 °F 30.03 in Calm     95% 0.00 in VWS V14.01 W/m2
05:04 76.0 °F 74.5 °F 30.03 in Calm     95% 0.00 in VWS V14.01 W/m2
05:09 76.2 °F 75.0 °F 30.03 in Calm     96% 0.00 in VWS V14.01 W/m2
05:14 76.2 °F 75.0 °F 30.03 in Calm     96% 0.00 in VWS V14.01 W/m2
05:19 76.2 °F 74.7 °F 30.03 in Calm     95% 0.00 in VWS V14.01 W/m2
05:24 76.1 °F 74.6 °F 30.03 in Calm     95% 0.00 in VWS V14.01 W/m2
05:29 76.1 °F 74.9 °F 30.03 in Calm     96% 0.00 in VWS V14.01 W/m2
05:34 76.3 °F 75.1 °F 30.03 in Calm     96% 0.00 in VWS V14.01 W/m2
05:39 76.3 °F 75.1 °F 30.03 in Calm     96% 0.00 in VWS V14.01 W/m2
05:44 76.3 °F 75.1 °F 30.03 in Calm     96% 0.00 in VWS V14.01 W/m2
05:49 76.3 °F 75.1 °F 30.03 in Calm     96% 0.00 in VWS V14.01 W/m2
05:54 76.3 °F 75.1 °F 30.03 in Calm     96% 0.00 in VWS V14.01 W/m2
05:59 76.2 °F 75.0 °F 30.04 in Calm     96% 0.00 in VWS V14.01 W/m2
06:04 76.2 °F 75.0 °F 30.04 in Calm     96% 0.00 in VWS V14.01 W/m2
06:09 76.0 °F 74.8 °F 30.04 in Calm     96% 0.00 in VWS V14.01 W/m2
06:14 76.0 °F 74.8 °F 30.04 in Calm     96% 0.00 in VWS V14.01 W/m2
06:19 75.9 °F 74.7 °F 30.04 in Calm     96% 0.00 in VWS V14.01 W/m2
06:24 75.7 °F 74.5 °F 30.04 in Calm     96% 0.00 in VWS V14.01 W/m2
06:29 75.7 °F 74.5 °F 30.04 in Calm     96% 0.00 in VWS V14.01 W/m2
06:34 75.7 °F 74.5 °F 30.04 in Calm     96% 0.00 in VWS V14.01 W/m2
06:39 75.7 °F 74.5 °F 30.04 in Calm     96% 0.00 in VWS V14.01 W/m2
06:44 75.8 °F 74.6 °F 30.05 in Calm     96% 0.00 in VWS V14.01 W/m2
06:49 75.7 °F 74.5 °F 30.05 in Calm     96% 0.00 in VWS V14.01 W/m2
06:54 75.7 °F 74.5 °F 30.06 in Calm     96% 0.00 in VWS V14.01 W/m2
06:59 75.6 °F 74.4 °F 30.06 in Calm     96% 0.00 in VWS V14.01 W/m2
07:04 75.8 °F 74.9 °F 30.06 in Calm     97% 0.00 in VWS V14.01 W/m2
07:09 75.7 °F 74.5 °F 30.06 in Calm     96% 0.00 in VWS V14.01 W/m2
07:14 75.8 °F 74.9 °F 30.06 in Calm     97% 0.00 in VWS V14.01 W/m2
07:19 75.9 °F 74.7 °F 30.06 in Calm     96% 0.00 in VWS V14.01 W/m2
07:24 76.0 °F 75.1 °F 30.06 in Calm     97% 0.00 in VWS V14.01 W/m2
07:29 76.1 °F 75.2 °F 30.07 in Calm     97% 0.00 in VWS V14.01 W/m2
07:34 76.1 °F 74.9 °F 30.07 in Calm     96% 0.00 in VWS V14.01 W/m2
07:39 76.2 °F 75.0 °F 30.07 in Calm     96% 0.00 in VWS V14.01 W/m2
07:44 76.6 °F 75.7 °F 30.07 in Calm     97% 0.00 in VWS V14.01 W/m2
07:49 77.2 °F 76.0 °F 30.07 in Calm     96% 0.00 in VWS V14.01 W/m2
07:54 77.8 °F 76.9 °F 30.08 in Calm     97% 0.00 in VWS V14.01 W/m2
07:59 78.5 °F 77.3 °F 30.08 in Calm     96% 0.00 in VWS V14.01 W/m2
08:04 78.6 °F 76.7 °F 30.08 in Calm     94% 0.00 in VWS V14.01 W/m2
08:09 78.7 °F 76.8 °F 30.09 in Calm   1.0 mph 94% 0.00 in VWS V14.01 W/m2
08:14 78.9 °F 76.7 °F 30.09 in Calm     93% 0.00 in VWS V14.01 W/m2
08:19 79.4 °F 76.9 °F 30.09 in Calm   1.0 mph 92% 0.00 in VWS V14.01 W/m2
08:24 80.4 °F 77.2 °F 30.09 in Calm   1.0 mph 90% 0.00 in VWS V14.01 W/m2
08:29 81.0 °F 77.1 °F 30.09 in Calm   1.0 mph 88% 0.00 in VWS V14.01 W/m2
08:34 81.6 °F 77.0 °F 30.10 in Calm   1.0 mph 86% 0.00 in VWS V14.01 W/m2
08:39 82.1 °F 76.8 °F 30.10 in Calm   1.0 mph 84% 0.00 in VWS V14.01 W/m2
08:44 82.5 °F 76.8 °F 30.10 in Calm     83% 0.00 in VWS V14.01 W/m2
08:49 82.9 °F 77.2 °F 30.10 in Calm   1.0 mph 83% 0.00 in VWS V14.01 W/m2
08:54 83.4 °F 77.3 °F 30.10 in Calm   1.0 mph 82% 0.00 in VWS V14.01 W/m2
08:59 84.2 °F 77.7 °F 30.09 in Calm   1.0 mph 81% 0.00 in VWS V14.01 W/m2
09:04 84.8 °F 77.2 °F 30.10 in SE 1.0 mph 1.0 mph 78% 0.00 in VWS V14.01 W/m2
09:09 84.8 °F 76.8 °F 30.10 in ESE 2.0 mph 2.0 mph 77% 0.00 in VWS V14.01 W/m2
09:14 84.7 °F 77.1 °F 30.10 in Calm   1.0 mph 78% 0.00 in VWS V14.01 W/m2
09:19 84.9 °F 76.9 °F 30.10 in SSE 1.0 mph 2.0 mph 77% 0.00 in VWS V14.01 W/m2
09:24 85.3 °F 77.3 °F 30.10 in Calm   2.0 mph 77% 0.00 in VWS V14.01 W/m2
09:29 85.4 °F 77.0 °F 30.10 in Calm   4.0 mph 76% 0.00 in VWS V14.01 W/m2
09:34 85.9 °F 77.5 °F 30.10 in SE 1.0 mph 4.0 mph 76% 0.00 in VWS V14.01 W/m2
Lake Mary, FL, USA
Compliments of Weather Underground